createdAt,value
2017-12-26T00:02:00.340Z,-0.10
2017-12-26T00:04:29.866Z,-0.10
2017-12-26T00:06:58.710Z,-0.10
2017-12-26T00:09:27.438Z,-0.40
2017-12-26T00:11:56.166Z,-0.60
2017-12-26T00:14:24.911Z,-0.70
2017-12-26T00:16:54.562Z,-0.70
2017-12-26T00:19:23.299Z,-0.80
2017-12-26T00:21:52.907Z,-0.90
2017-12-26T00:24:22.399Z,-0.80
2017-12-26T00:26:51.878Z,-0.90
2017-12-26T00:29:20.594Z,-1.00
2017-12-26T00:31:50.084Z,-1.10
2017-12-26T00:34:18.899Z,-1.20
2017-12-26T00:36:48.392Z,-1.00
2017-12-26T00:39:17.895Z,-1.00
2017-12-26T00:41:46.735Z,-1.10
2017-12-26T00:44:15.455Z,-1.00
2017-12-26T00:46:44.387Z,-0.90
2017-12-26T00:49:13.890Z,-0.70
2017-12-26T00:51:43.387Z,-0.80
2017-12-26T00:54:12.855Z,-0.90
2017-12-26T00:56:41.689Z,-1.00
2017-12-26T00:59:11.167Z,-1.00
2017-12-26T01:01:39.996Z,-1.00
2017-12-26T01:04:08.710Z,-0.90
2017-12-26T01:06:37.450Z,-1.10
2017-12-26T01:09:06.165Z,-1.20
2017-12-26T01:11:34.937Z,-1.20
2017-12-26T01:14:04.419Z,-1.00
2017-12-26T01:16:33.139Z,-1.00
2017-12-26T01:19:01.963Z,-0.90
2017-12-26T01:21:30.708Z,-0.90
2017-12-26T01:24:00.324Z,-0.80
2017-12-26T01:26:29.066Z,-0.90
2017-12-26T01:28:57.852Z,-1.00
2017-12-26T01:31:26.559Z,-1.00
2017-12-26T01:33:55.327Z,-1.10
2017-12-26T01:36:24.048Z,-1.30
2017-12-26T01:38:52.902Z,-1.30
2017-12-26T01:41:21.609Z,-1.10
2017-12-26T01:43:50.339Z,-0.80
2017-12-26T01:46:25.274Z,-0.80
2017-12-26T01:48:54.024Z,-1.00
2017-12-26T01:51:22.740Z,-1.00
2017-12-26T01:53:52.407Z,-1.00
2017-12-26T01:56:21.091Z,-1.00
2017-12-26T01:58:49.810Z,-0.90
2017-12-26T02:01:18.571Z,-0.70
2017-12-26T02:03:47.286Z,-0.70
2017-12-26T02:06:16.015Z,-0.70
2017-12-26T02:08:44.746Z,-0.70
2017-12-26T02:11:13.486Z,-0.60
2017-12-26T02:13:42.235Z,-0.60
2017-12-26T02:16:11.003Z,-0.60
2017-12-26T02:18:39.698Z,-0.40
2017-12-26T02:21:08.434Z,-0.30
2017-12-26T02:23:37.903Z,-0.80
2017-12-26T02:26:06.626Z,-0.80
2017-12-26T02:28:36.083Z,-0.40
2017-12-26T02:31:04.807Z,-0.40
2017-12-26T02:33:33.496Z,-0.10
2017-12-26T02:36:02.207Z,-0.10
2017-12-26T02:38:30.930Z,-0.20
2017-12-26T02:40:59.633Z,-0.30
2017-12-26T02:43:28.370Z,-0.60
2017-12-26T02:45:57.087Z,-0.70
2017-12-26T02:48:25.816Z,-0.80
2017-12-26T02:50:54.526Z,-0.80
2017-12-26T02:53:24.012Z,-0.80
2017-12-26T02:55:52.714Z,-0.80
2017-12-26T02:58:22.187Z,-0.70
2017-12-26T03:00:50.885Z,-0.70
2017-12-26T03:03:19.603Z,-0.30
2017-12-26T03:05:48.290Z,0.10
2017-12-26T03:08:17.763Z,0.40
2017-12-26T03:10:46.547Z,0.40
2017-12-26T03:13:15.284Z,0.80
2017-12-26T03:15:43.990Z,0.80
2017-12-26T03:18:12.762Z,0.80
2017-12-26T03:20:41.474Z,1.00
2017-12-26T03:23:10.182Z,1.00
2017-12-26T03:25:38.879Z,1.00
2017-12-26T03:28:07.588Z,0.80
2017-12-26T03:30:37.134Z,1.20
2017-12-26T03:33:05.991Z,1.10
2017-12-26T03:35:35.442Z,1.10
2017-12-26T03:38:04.165Z,1.10
2017-12-26T03:40:32.858Z,1.30
2017-12-26T03:43:01.595Z,1.30
2017-12-26T03:45:31.286Z,1.10
2017-12-26T03:47:59.995Z,1.00
2017-12-26T03:50:28.722Z,1.50
2017-12-26T03:52:57.430Z,1.50
2017-12-26T03:55:26.895Z,2.10
2017-12-26T03:57:55.607Z,2.00
2017-12-26T04:00:24.374Z,2.20
2017-12-26T04:02:53.130Z,2.00
2017-12-26T04:05:21.899Z,1.70
2017-12-26T04:07:51.407Z,1.60
2017-12-26T04:10:20.883Z,1.80
2017-12-26T04:12:49.575Z,1.80
2017-12-26T04:15:18.302Z,1.80
2017-12-26T04:17:47.022Z,1.60
2017-12-26T04:20:15.867Z,1.50
2017-12-26T04:22:45.331Z,1.40
2017-12-26T04:25:14.039Z,1.30
2017-12-26T04:27:42.743Z,1.30
2017-12-26T04:30:12.231Z,1.20
2017-12-26T04:32:40.928Z,1.10
2017-12-26T04:35:09.631Z,0.90
2017-12-26T04:37:39.147Z,0.70
2017-12-26T04:40:07.834Z,0.70
2017-12-26T04:42:36.546Z,0.50
2017-12-26T04:45:05.239Z,0.40
2017-12-26T04:47:33.946Z,0.20
2017-12-26T04:50:02.690Z,0.10
2017-12-26T04:52:31.558Z,0.00
2017-12-26T04:55:01.010Z,0.00
2017-12-26T04:57:29.926Z,-0.10
2017-12-26T04:59:58.622Z,0.00
2017-12-26T05:02:27.478Z,0.10
2017-12-26T05:04:56.170Z,0.10
2017-12-26T05:07:24.949Z,0.00
2017-12-26T05:09:53.646Z,-0.30
2017-12-26T05:12:22.355Z,-0.30
2017-12-26T05:14:51.346Z,-0.40
2017-12-26T05:17:20.123Z,-0.40
2017-12-26T05:19:48.834Z,-0.40
2017-12-26T05:22:17.770Z,-0.40
2017-12-26T05:24:46.481Z,-0.50
2017-12-26T05:27:15.173Z,-0.50
2017-12-26T05:29:43.882Z,-0.50
2017-12-26T05:32:12.586Z,-0.50
2017-12-26T05:34:41.306Z,-0.60
2017-12-26T05:37:10.758Z,-0.70
2017-12-26T05:39:39.738Z,-0.80
2017-12-26T05:42:08.435Z,-0.60
2017-12-26T05:44:37.135Z,-0.60
2017-12-26T05:47:05.894Z,-0.60
2017-12-26T05:49:34.602Z,-0.60
2017-12-26T05:52:03.323Z,-0.70
2017-12-26T05:54:32.032Z,-0.70
2017-12-26T05:57:01.634Z,-0.70
2017-12-26T05:59:31.102Z,-0.70
2017-12-26T06:01:59.810Z,-0.80
2017-12-26T06:04:28.498Z,-0.60
2017-12-26T06:06:57.209Z,-0.60
2017-12-26T06:09:26.672Z,-0.40
2017-12-26T06:11:55.375Z,-0.40
2017-12-26T06:14:24.095Z,-0.30
2017-12-26T06:16:53.570Z,0.10
2017-12-26T06:19:22.285Z,0.00
2017-12-26T06:21:50.974Z,0.20
2017-12-26T06:24:19.711Z,0.30
2017-12-26T06:26:48.398Z,0.60
2017-12-26T06:29:17.089Z,0.80
2017-12-26T06:31:45.827Z,0.70
2017-12-26T06:34:14.599Z,0.70
2017-12-26T06:36:44.070Z,0.70
2017-12-26T06:39:12.784Z,0.60
2017-12-26T06:41:41.467Z,0.60
2017-12-26T06:44:10.182Z,0.50
2017-12-26T06:46:38.870Z,0.80
2017-12-26T06:49:08.357Z,0.90
2017-12-26T06:51:37.890Z,1.00
2017-12-26T06:54:06.593Z,0.90
2017-12-26T06:56:35.322Z,1.00
2017-12-26T06:59:04.028Z,1.00
2017-12-26T07:01:32.821Z,0.90
2017-12-26T07:04:02.294Z,0.80
2017-12-26T07:06:30.990Z,0.70
2017-12-26T07:08:59.702Z,0.80
2017-12-26T07:11:29.279Z,1.00
2017-12-26T07:13:58.031Z,0.90
2017-12-26T07:16:26.722Z,1.00
2017-12-26T07:18:55.431Z,0.90
2017-12-26T07:21:29.524Z,1.10
2017-12-26T07:23:58.250Z,0.90
2017-12-26T07:26:26.988Z,0.80
2017-12-26T07:28:56.630Z,1.00
2017-12-26T07:31:25.346Z,0.90
2017-12-26T07:33:54.051Z,1.10
2017-12-26T07:36:23.570Z,1.40
2017-12-26T07:38:53.039Z,1.40
2017-12-26T07:41:21.751Z,1.40
2017-12-26T07:43:50.459Z,1.30
2017-12-26T07:46:19.928Z,1.00
2017-12-26T07:48:48.610Z,0.90
2017-12-26T07:51:17.319Z,0.70
2017-12-26T07:53:46.786Z,0.50
2017-12-26T07:56:15.518Z,0.50
2017-12-26T07:58:44.966Z,0.70
2017-12-26T08:01:13.683Z,0.60
2017-12-26T08:03:42.379Z,0.70
2017-12-26T08:06:11.092Z,0.80
2017-12-26T08:08:40.563Z,0.80
2017-12-26T08:11:09.282Z,0.80
2017-12-26T08:13:38.784Z,0.80
2017-12-26T08:16:08.246Z,0.90
2017-12-26T08:18:37.038Z,0.90
2017-12-26T08:21:05.835Z,1.00
2017-12-26T08:23:34.559Z,1.10
2017-12-26T08:26:04.022Z,1.40
2017-12-26T08:28:32.770Z,1.30
2017-12-26T08:31:01.491Z,1.30
2017-12-26T08:33:30.379Z,1.30
2017-12-26T08:35:59.113Z,1.30
2017-12-26T08:38:27.806Z,1.40
2017-12-26T08:40:57.293Z,1.40
2017-12-26T08:43:26.011Z,1.30
2017-12-26T08:45:55.505Z,2.10
2017-12-26T08:48:24.993Z,2.30
2017-12-26T08:50:53.690Z,2.30
2017-12-26T08:53:22.395Z,2.40
2017-12-26T08:55:51.966Z,2.90
2017-12-26T08:58:21.155Z,3.00
2017-12-26T09:00:49.861Z,3.00
2017-12-26T09:03:18.315Z,3.20
2017-12-26T09:05:46.767Z,3.30
2017-12-26T09:08:15.209Z,3.70
2017-12-26T09:10:44.386Z,3.90
2017-12-26T09:13:13.631Z,4.20
2017-12-26T09:15:42.085Z,4.10
2017-12-26T09:18:11.280Z,4.20
2017-12-26T09:20:40.483Z,4.40
2017-12-26T09:23:09.675Z,4.40
2017-12-26T09:25:39.034Z,4.50
2017-12-26T09:28:07.463Z,4.40
2017-12-26T09:30:36.651Z,4.70
2017-12-26T09:33:05.091Z,4.70
2017-12-26T09:35:33.592Z,4.80
2017-12-26T09:38:02.023Z,5.00
2017-12-26T09:40:30.474Z,5.00
2017-12-26T09:42:58.922Z,5.20
2017-12-26T09:45:27.355Z,5.30
2017-12-26T09:47:56.562Z,5.30
2017-12-26T09:50:24.992Z,5.30
2017-12-26T09:52:53.484Z,5.20
2017-12-26T09:55:21.931Z,5.30
2017-12-26T09:57:50.375Z,5.40
2017-12-26T10:00:19.562Z,5.20
2017-12-26T10:02:47.995Z,5.20
2017-12-26T10:05:16.455Z,5.30
2017-12-26T10:07:44.952Z,5.50
2017-12-26T10:10:13.378Z,6.00
2017-12-26T10:12:41.459Z,6.50
2017-12-26T10:15:09.889Z,6.90
2017-12-26T10:17:38.330Z,7.30
2017-12-26T10:20:07.531Z,7.70
2017-12-26T10:27:34.976Z,7.90
2017-12-26T10:30:03.413Z,8.00
2017-12-26T10:32:32.636Z,7.70
2017-12-26T10:35:01.089Z,7.70
2017-12-26T10:37:30.241Z,7.70
2017-12-26T11:27:21.352Z,9.10
2017-12-26T12:04:45.102Z,8.50
2017-12-26T12:17:11.795Z,8.30
2017-12-26T12:19:41.326Z,8.20
2017-12-26T12:22:10.804Z,8.10
2017-12-26T12:24:40.076Z,8.00
2017-12-26T12:27:08.816Z,8.00
2017-12-26T12:29:37.417Z,8.00
2017-12-26T12:32:06.119Z,8.00
2017-12-26T12:34:34.566Z,7.90
2017-12-26T12:37:02.992Z,7.80
2017-12-26T12:39:31.696Z,7.60
2017-12-26T12:42:00.241Z,7.50
2017-12-26T12:44:28.733Z,7.30
2017-12-26T12:46:57.935Z,7.10
2017-12-26T12:49:26.511Z,7.00
2017-12-26T12:51:55.075Z,7.10
2017-12-26T14:01:40.212Z,7.30
2017-12-26T14:04:09.413Z,7.30
2017-12-26T14:16:37.242Z,6.80
2017-12-26T14:34:02.462Z,6.80
2017-12-26T14:36:31.655Z,6.60
2017-12-26T14:39:00.879Z,6.60
2017-12-26T14:41:29.319Z,6.50
2017-12-26T14:43:57.787Z,6.20
2017-12-26T14:46:26.281Z,6.10
2017-12-26T14:48:55.511Z,6.10
2017-12-26T14:51:24.691Z,6.00
2017-12-26T14:53:53.909Z,6.00
2017-12-26T14:56:23.095Z,5.70
2017-12-26T14:58:52.336Z,5.60
2017-12-26T15:01:20.914Z,5.60
2017-12-26T15:08:48.366Z,5.20
2017-12-26T15:11:16.825Z,4.90
2017-12-26T15:13:45.274Z,5.00
2017-12-26T15:16:13.767Z,4.90
2017-12-26T15:18:42.192Z,4.90
2017-12-26T15:21:10.678Z,5.10
2017-12-26T15:23:40.005Z,5.00
2017-12-26T15:26:08.539Z,4.90
2017-12-26T15:28:36.985Z,5.10
2017-12-26T15:31:05.446Z,4.90
2017-12-26T15:33:33.878Z,4.80
2017-12-26T15:36:02.497Z,4.60
2017-12-26T15:41:01.986Z,4.60
2017-12-26T15:43:30.407Z,4.50
2017-12-26T15:45:59.603Z,4.30
2017-12-26T15:48:28.962Z,4.50
2017-12-26T15:50:57.379Z,4.40
2017-12-26T15:53:25.835Z,4.20
2017-12-26T15:55:54.328Z,4.00
2017-12-26T15:58:22.783Z,3.90
2017-12-26T16:00:51.311Z,3.70
2017-12-26T16:03:19.773Z,3.70
2017-12-26T16:05:49.725Z,3.80
2017-12-26T16:08:18.190Z,3.80
2017-12-26T16:10:46.619Z,4.00
2017-12-26T16:13:15.098Z,4.10
2017-12-26T16:15:43.554Z,3.90
2017-12-26T16:18:12.751Z,3.60
2017-12-26T16:20:41.955Z,3.90
2017-12-26T16:23:11.184Z,3.80
2017-12-26T16:25:39.631Z,3.80
2017-12-26T16:28:08.847Z,3.40
2017-12-26T16:30:37.302Z,3.30
2017-12-26T16:33:06.560Z,3.20
2017-12-26T16:35:34.987Z,3.20
2017-12-26T16:38:04.194Z,3.10
2017-12-26T16:40:33.383Z,3.20
2017-12-26T16:43:02.627Z,3.10
2017-12-26T16:45:31.059Z,3.10
2017-12-26T16:47:59.508Z,3.30
2017-12-26T16:50:27.948Z,3.40
2017-12-26T16:52:56.396Z,3.60
2017-12-26T16:55:24.847Z,3.40
2017-12-26T16:57:53.273Z,3.30
2017-12-26T17:00:22.480Z,3.10
2017-12-26T17:02:51.726Z,3.20
2017-12-26T17:05:20.258Z,3.10
2017-12-26T17:07:49.447Z,2.80
2017-12-26T17:12:47.350Z,2.70
2017-12-26T17:15:16.559Z,2.70
2017-12-26T17:17:45.791Z,2.30
2017-12-26T17:32:42.285Z,2.60
2017-12-26T17:35:11.478Z,2.70
2017-12-26T17:37:40.679Z,2.60
2017-12-26T17:40:09.872Z,2.60
2017-12-26T17:42:38.738Z,2.80
2017-12-26T17:45:07.191Z,2.70
2017-12-26T17:47:35.619Z,2.70
2017-12-26T17:50:04.691Z,2.80
2017-12-26T17:52:33.111Z,2.70
2017-12-26T17:55:02.311Z,2.90
2017-12-26T17:57:30.443Z,2.80
2017-12-26T17:59:58.684Z,2.80
2017-12-26T18:02:27.159Z,2.90
2017-12-26T18:04:55.586Z,2.90
2017-12-26T18:07:24.036Z,2.70
2017-12-26T18:12:21.940Z,2.50
2017-12-26T18:14:50.770Z,2.40
2017-12-26T18:17:19.964Z,2.30
2017-12-26T18:24:47.559Z,2.20
2017-12-26T18:27:15.996Z,2.50
2017-12-26T18:29:44.450Z,2.70
2017-12-26T18:32:13.150Z,2.70
